createdAt,value
2023-02-07T00:04:56.151Z,-8.64
2023-02-07T00:09:57.936Z,-8.82
2023-02-07T00:15:06.718Z,-8.86
2023-02-07T00:20:09.224Z,-8.87
2023-02-07T00:25:11.783Z,-8.90
2023-02-07T00:30:13.776Z,-8.89
2023-02-07T00:35:15.732Z,-8.82
2023-02-07T00:40:18.722Z,-8.84
2023-02-07T00:45:20.489Z,-8.78
2023-02-07T00:50:22.356Z,-8.73
2023-02-07T00:55:24.162Z,-8.84
2023-02-07T01:00:25.907Z,-9.04
2023-02-07T01:05:28.007Z,-9.11
2023-02-07T01:10:29.987Z,-9.11
2023-02-07T01:15:31.902Z,-9.08
2023-02-07T01:20:33.837Z,-9.01
2023-02-07T01:25:35.732Z,-8.96
2023-02-07T01:30:40.819Z,-8.88
2023-02-07T01:35:46.584Z,-8.83
2023-02-07T01:40:48.296Z,-8.75
2023-02-07T01:45:49.979Z,-8.66
2023-02-07T01:50:55.151Z,-8.76
2023-02-07T01:56:02.662Z,-8.74
2023-02-07T02:01:09.604Z,-8.67
2023-02-07T02:06:13.473Z,-8.81
2023-02-07T02:11:20.783Z,-8.93
2023-02-07T02:16:46.969Z,-9.03
2023-02-07T02:22:08.410Z,-9.22
2023-02-07T02:27:17.345Z,-9.24
2023-02-07T02:32:22.069Z,-9.32
2023-02-07T02:37:45.516Z,-9.30
2023-02-07T02:43:33.325Z,-9.21
2023-02-07T02:48:36.328Z,-9.22
2023-02-07T02:53:38.349Z,-9.19
2023-02-07T02:59:14.545Z,-9.22
2023-02-07T03:04:30.323Z,-9.28
2023-02-07T03:09:45.026Z,-9.36
2023-02-07T03:14:58.384Z,-9.36
2023-02-07T03:20:08.671Z,-9.31
2023-02-07T03:25:14.701Z,-9.28
2023-02-07T03:30:21.472Z,-9.30
2023-02-07T03:35:38.342Z,-9.16
2023-02-07T03:40:46.058Z,-9.07
2023-02-07T03:45:47.763Z,-9.10
2023-02-07T03:50:51.980Z,-9.17
2023-02-07T03:55:54.194Z,-9.22
2023-02-07T04:00:57.085Z,-9.17
2023-02-07T04:05:58.851Z,-9.09
2023-02-07T04:11:03.357Z,-9.12
2023-02-07T04:16:07.245Z,-9.15
2023-02-07T04:21:09.515Z,-9.13
2023-02-07T04:26:11.735Z,-9.03
2023-02-07T04:31:13.593Z,-9.01
2023-02-07T04:36:15.427Z,-9.05
2023-02-07T04:41:17.781Z,-9.17
2023-02-07T04:46:20.916Z,-9.27
2023-02-07T04:51:22.797Z,-9.32
2023-02-07T04:56:25.051Z,-9.32
2023-02-07T05:01:26.809Z,-9.30
2023-02-07T05:06:28.515Z,-9.32
2023-02-07T05:11:30.348Z,-9.34
2023-02-07T05:16:32.152Z,-9.34
2023-02-07T05:21:33.952Z,-9.24
2023-02-07T05:26:35.730Z,-9.16
2023-02-07T05:31:56.117Z,-9.23
2023-02-07T05:36:57.797Z,-9.34
2023-02-07T05:41:59.488Z,-9.61
2023-02-07T05:47:01.382Z,-9.74
2023-02-07T05:52:03.996Z,-9.84
2023-02-07T05:57:05.915Z,-9.86
2023-02-07T06:02:07.603Z,-9.63
2023-02-07T06:07:09.411Z,-9.37
2023-02-07T06:12:11.103Z,-9.11
2023-02-07T06:17:12.860Z,-8.82
2023-02-07T06:22:15.187Z,-8.47
2023-02-07T06:27:17.023Z,-8.11
2023-02-07T06:32:18.725Z,-7.73
2023-02-07T06:37:20.367Z,-7.35
2023-02-07T06:42:22.182Z,-7.00
2023-02-07T06:47:26.910Z,-6.68
2023-02-07T06:52:28.721Z,-6.40
2023-02-07T06:57:30.630Z,-6.15
2023-02-07T07:02:32.680Z,-5.91
2023-02-07T07:07:34.559Z,-5.72
2023-02-07T07:12:36.341Z,-5.54
2023-02-07T07:17:38.194Z,-5.35
2023-02-07T07:22:39.926Z,-5.18
2023-02-07T07:27:41.604Z,-4.99
2023-02-07T07:32:43.227Z,-4.82
2023-02-07T07:37:44.844Z,-4.64
2023-02-07T07:42:46.753Z,-4.44
2023-02-07T07:48:14.561Z,-4.21
2023-02-07T07:53:18.357Z,-3.99
2023-02-07T07:58:21.827Z,-3.68
2023-02-07T08:03:23.793Z,-3.46
2023-02-07T08:08:25.640Z,-3.28
2023-02-07T08:13:32.286Z,-3.09
2023-02-07T08:18:35.303Z,-3.01
2023-02-07T08:23:37.431Z,-2.86
2023-02-07T08:28:39.426Z,-2.80
2023-02-07T08:33:41.129Z,-2.62
2023-02-07T08:38:42.698Z,-2.49
2023-02-07T08:43:44.343Z,-2.33
2023-02-07T08:48:45.993Z,-2.22
2023-02-07T08:53:47.711Z,-2.33
2023-02-07T08:58:49.408Z,-2.38
2023-02-07T09:03:51.074Z,-2.41
2023-02-07T09:08:52.844Z,-2.40
2023-02-07T09:13:54.597Z,-2.65
2023-02-07T09:18:56.821Z,-2.54
2023-02-07T09:23:58.535Z,-2.24
2023-02-07T09:29:00.321Z,-2.08
2023-02-07T09:34:02.941Z,-2.12
2023-02-07T09:39:06.502Z,-2.50
2023-02-07T09:44:23.855Z,-2.49
2023-02-07T09:49:37.232Z,-2.54
2023-02-07T09:54:44.410Z,-2.49
2023-02-07T09:59:53.362Z,-2.24
2023-02-07T10:05:02.377Z,-1.71
2023-02-07T10:10:04.182Z,-0.98
2023-02-07T10:15:17.100Z,-0.64
2023-02-07T10:20:25.069Z,-0.15
2023-02-07T10:25:39.112Z,0.11
2023-02-07T10:30:49.496Z,0.36
2023-02-07T10:35:53.538Z,0.51
2023-02-07T10:41:01.499Z,0.67
2023-02-07T10:46:06.918Z,0.99
2023-02-07T10:51:34.754Z,1.32
2023-02-07T10:56:45.294Z,1.58
2023-02-07T11:01:54.071Z,1.48
2023-02-07T11:07:01.036Z,1.29
2023-02-07T11:12:14.291Z,1.17
2023-02-07T11:17:21.507Z,1.21
2023-02-07T11:22:25.099Z,0.65
2023-02-07T11:27:27.667Z,0.38
2023-02-07T11:32:30.150Z,0.06
2023-02-07T11:37:35.281Z,-0.20
2023-02-07T11:42:36.966Z,-0.14
2023-02-07T11:47:41.470Z,-0.10
2023-02-07T11:52:51.777Z,-0.34
2023-02-07T11:57:57.696Z,-0.48
2023-02-07T12:03:09.579Z,-0.43
2023-02-07T12:08:20.781Z,-0.41
2023-02-07T12:13:29.260Z,-0.29
2023-02-07T12:18:35.370Z,-0.36
2023-02-07T12:23:46.558Z,-0.48
2023-02-07T12:29:32.982Z,-0.56
2023-02-07T12:34:45.689Z,-0.62
2023-02-07T12:40:12.938Z,-0.57
2023-02-07T12:45:25.701Z,-0.47
2023-02-07T12:50:53.088Z,-0.43
2023-02-07T12:55:57.744Z,-0.45
2023-02-07T13:01:18.340Z,-0.53
2023-02-07T13:06:33.139Z,-0.57
2023-02-07T13:11:37.829Z,-0.67
2023-02-07T13:16:51.451Z,-0.65
2023-02-07T13:21:53.441Z,-0.74
2023-02-07T13:27:00.705Z,-0.82
2023-02-07T13:32:12.520Z,-0.80
2023-02-07T13:37:17.634Z,-0.62
2023-02-07T13:42:28.859Z,-0.46
2023-02-07T13:47:41.675Z,-0.46
2023-02-07T13:52:47.743Z,-0.48
2023-02-07T13:58:08.861Z,-0.45
2023-02-07T14:03:21.060Z,-0.49
2023-02-07T14:08:25.098Z,-0.63
2023-02-07T14:13:26.822Z,-0.63
2023-02-07T14:18:38.693Z,-0.67
2023-02-07T14:23:58.035Z,-0.75
2023-02-07T14:29:38.019Z,-0.90
2023-02-07T14:35:01.672Z,-0.85
2023-02-07T14:40:08.843Z,-0.77
2023-02-07T14:45:22.451Z,-0.75
2023-02-07T14:50:30.644Z,-0.71
2023-02-07T14:55:46.034Z,-0.86
2023-02-07T15:00:56.258Z,-1.08
2023-02-07T15:06:01.323Z,-1.18
2023-02-07T15:11:03.013Z,-1.32
2023-02-07T15:16:06.064Z,-1.41
2023-02-07T15:21:19.029Z,-1.52
2023-02-07T15:26:21.204Z,-1.64
2023-02-07T15:31:23.019Z,-1.78
2023-02-07T15:36:43.345Z,-1.78
2023-02-07T15:41:46.682Z,-1.83
2023-02-07T15:46:55.634Z,-1.89
2023-02-07T15:52:11.971Z,-2.04
2023-02-07T15:57:34.610Z,-2.28
2023-02-07T16:02:40.600Z,-2.50
2023-02-07T16:07:45.149Z,-2.60
2023-02-07T16:12:52.924Z,-2.72
2023-02-07T16:17:55.652Z,-2.90
2023-02-07T16:23:02.102Z,-3.05
2023-02-07T16:28:11.218Z,-3.11
2023-02-07T16:33:13.833Z,-3.14
2023-02-07T16:38:15.508Z,-3.09
2023-02-07T16:43:37.396Z,-2.97
2023-02-07T16:48:38.965Z,-2.82
2023-02-07T16:53:40.558Z,-2.65
2023-02-07T16:58:42.565Z,-2.43
2023-02-07T17:03:44.862Z,-2.22
2023-02-07T17:08:47.350Z,-1.99
2023-02-07T17:13:48.949Z,-1.74
2023-02-07T17:18:50.898Z,-1.54
2023-02-07T17:23:52.632Z,-1.54
2023-02-07T17:28:55.371Z,-1.57
2023-02-07T17:33:57.094Z,-1.61
2023-02-07T17:38:59.094Z,-1.60
2023-02-07T17:44:00.977Z,-1.56
2023-02-07T17:49:02.980Z,-1.48
2023-02-07T17:54:04.735Z,-1.47
2023-02-07T17:59:07.120Z,-1.50
2023-02-07T18:04:09.223Z,-1.52
2023-02-07T18:09:18.567Z,-1.52
2023-02-07T18:14:20.320Z,-1.55
2023-02-07T18:19:21.975Z,-1.58
2023-02-07T18:24:23.907Z,-1.58
2023-02-07T18:29:27.208Z,-1.58
2023-02-07T18:34:28.898Z,-1.59
2023-02-07T18:39:30.761Z,-1.60
2023-02-07T18:44:32.740Z,-1.58
2023-02-07T18:49:36.339Z,-1.57
2023-02-07T18:54:40.187Z,-1.59
2023-02-07T18:59:42.076Z,-1.63
2023-02-07T19:04:43.805Z,-1.58
2023-02-07T19:09:45.404Z,-1.60
2023-02-07T19:14:47.485Z,-1.67
2023-02-07T19:19:49.569Z,-1.71
2023-02-07T19:24:51.583Z,-1.76
2023-02-07T19:29:53.240Z,-1.78
2023-02-07T19:34:59.072Z,-1.77
2023-02-07T19:40:00.875Z,-1.76
2023-02-07T19:45:04.501Z,-1.73
2023-02-07T19:50:07.571Z,-1.72
2023-02-07T19:55:09.437Z,-1.76
2023-02-07T20:00:11.968Z,-1.81
2023-02-07T20:05:14.048Z,-1.91
2023-02-07T20:10:16.126Z,-1.99
2023-02-07T20:15:17.839Z,-2.03
2023-02-07T20:20:21.219Z,-2.02
2023-02-07T20:25:23.301Z,-1.96
2023-02-07T20:30:25.275Z,-1.93
2023-02-07T20:35:27.482Z,-1.90
2023-02-07T20:40:29.254Z,-1.81
2023-02-07T20:45:30.789Z,-1.74
2023-02-07T20:50:32.687Z,-1.64
2023-02-07T20:55:36.562Z,-1.65
2023-02-07T21:00:38.559Z,-1.63
2023-02-07T21:05:40.555Z,-1.66
2023-02-07T21:10:42.484Z,-1.72
2023-02-07T21:16:01.402Z,-1.68
2023-02-07T21:21:08.524Z,-1.64
2023-02-07T21:26:13.571Z,-1.58
2023-02-07T21:31:20.245Z,-1.49
2023-02-07T21:36:24.641Z,-1.47
2023-02-07T21:41:28.541Z,-1.51
2023-02-07T21:46:35.575Z,-1.52
2023-02-07T21:51:37.265Z,-1.48
2023-02-07T21:56:41.172Z,-1.41
2023-02-07T22:01:44.446Z,-1.35
2023-02-07T22:06:49.170Z,-1.34
2023-02-07T22:11:51.155Z,-1.33
2023-02-07T22:16:55.156Z,-1.31
2023-02-07T22:21:58.867Z,-1.25
2023-02-07T22:27:00.574Z,-1.16
2023-02-07T22:32:04.466Z,-1.06
2023-02-07T22:37:06.497Z,-1.01
2023-02-07T22:42:08.232Z,-0.99
2023-02-07T22:47:09.960Z,-0.99
2023-02-07T22:52:11.554Z,-0.96
2023-02-07T22:57:16.257Z,-0.99
2023-02-07T23:02:17.936Z,-0.96
2023-02-07T23:07:19.604Z,-0.89
2023-02-07T23:12:21.707Z,-0.78
2023-02-07T23:17:23.718Z,-0.70
2023-02-07T23:22:25.578Z,-0.76
2023-02-07T23:27:27.652Z,-0.84
2023-02-07T23:32:29.322Z,-0.92
2023-02-07T23:37:31.230Z,-0.81
2023-02-07T23:42:32.843Z,-0.77
2023-02-07T23:47:34.526Z,-0.74
2023-02-07T23:52:36.141Z,-0.69
2023-02-07T23:57:37.956Z,-0.68
